Time;durP1;ratioP1;P1;durP2;ratioP2;P2;SDS_P1;SDS_P2;PMS_P1;PMS_P2;Temp;Humidity;BMP_temperature;BMP_pressure;BME280_temperature;BME280_humidity;BME280_pressure;Samples;Min_cycle;Max_cycle;Signal;HPM_P1;HPM_P2
2023/08/21 00:00:08;;;;;;;7.05;1.67;;;14.70;99.90;;;;;;4988090;28;20053;-69
2023/08/21 00:02:34;;;;;;;4.30;1.67;;;;;;;;;;5006233;28;20041;-69
2023/08/21 00:05:00;;;;;;;5.78;1.30;;;;;;;;;;5005982;28;20056;-69
2023/08/21 00:07:25;;;;;;;2.50;1.10;;;14.90;99.90;;;;;;4988500;28;20442;-69
2023/08/21 00:09:51;;;;;;;4.43;1.13;;;;;;;;;;5005703;28;20041;-69
2023/08/21 00:12:17;;;;;;;3.65;0.70;;;14.80;99.90;;;;;;5005073;28;20060;-69
2023/08/21 00:14:43;;;;;;;2.45;0.98;;;;;;;;;;5005831;28;20046;-69
2023/08/21 00:17:08;;;;;;;3.83;0.95;;;14.70;99.90;;;;;;5004476;28;20038;-69
2023/08/21 00:19:34;;;;;;;4.70;0.80;;;14.50;99.90;;;;;;4985995;28;20052;-69
2023/08/21 00:22:00;;;;;;;1.52;0.90;;;;;;;;;;4987459;28;20041;-69
2023/08/21 00:24:26;;;;;;;0.95;0.73;;;;;;;;;;5005731;28;20045;-69
2023/08/21 00:26:52;;;;;;;2.88;0.50;;;14.40;99.90;;;;;;5006098;28;20048;-69
2023/08/21 00:29:18;;;;;;;1.67;0.80;;;;;;;;;;5004970;28;20038;-69
2023/08/21 00:31:43;;;;;;;1.67;0.70;;;14.50;99.90;;;;;;4987528;28;20064;-69
2023/08/21 00:34:09;;;;;;;1.70;0.90;;;;;;;;;;5005024;28;20499;-69
2023/08/21 00:36:35;;;;;;;1.08;0.63;;;;;;;;;;5004999;28;20604;-69
2023/08/21 00:39:01;;;;;;;1.92;0.90;;;;;;;;;;5004440;28;20046;-69
2023/08/21 00:41:27;;;;;;;3.75;0.75;;;14.30;99.90;;;;;;5004588;28;20049;-69
2023/08/21 00:43:53;;;;;;;0.90;0.65;;;14.40;99.90;;;;;;4986494;28;20045;-69
2023/08/21 00:46:19;;;;;;;0.80;0.75;;;;;;;;;;5003011;28;20045;-69
2023/08/21 00:48:45;;;;;;;1.05;0.75;;;;;;;;;;4985476;28;20042;-69
2023/08/21 00:51:14;;;;;;;2.30;0.68;;;14.10;99.90;;;;;;5003255;28;20084;-69
2023/08/21 00:53:40;;;;;;;2.38;0.73;;;;;;;;;;5002468;28;20416;-69
2023/08/21 00:56:06;;;;;;;1.35;0.85;;;;;;;;;;5002601;28;20038;-69
2023/08/21 00:58:32;;;;;;;0.93;0.60;;;14.20;99.90;;;;;;5003612;28;20050;-69
2023/08/21 01:00:58;;;;;;;1.17;0.75;;;14.00;99.90;;;;;;4984662;28;20046;-69
2023/08/21 01:03:24;;;;;;;3.30;1.00;;;;;;;;;;5003406;28;20056;-69
2023/08/21 01:05:50;;;;;;;3.15;1.17;;;15.30;99.90;;;;;;5002349;28;20500;-69
2023/08/21 01:08:28;;;;;;;5.13;1.40;;;14.30;99.90;;;;;;4969458;28;20049;-69
2023/08/21 01:11:02;;;;;;;6.38;1.02;;;14.20;99.90;;;;;;5004024;28;20504;-69
2023/08/21 01:13:33;;;;;;;3.33;1.45;;;14.10;99.90;;;;;;5001612;28;20068;-69
2023/08/21 01:15:59;;;;;;;2.83;0.80;;;14.20;99.90;;;;;;5002875;28;20053;-69
2023/08/21 01:18:28;;;;;;;1.08;0.70;;;14.10;99.90;;;;;;4985256;28;20129;-69
2023/08/21 01:20:54;;;;;;;3.03;1.13;;;13.90;99.90;;;;;;5005300;28;20120;-69
2023/08/21 01:23:36;;;;;;;1.52;1.02;;;13.70;99.90;;;;;;4985225;28;20061;-69
2023/08/21 01:26:02;;;;;;;3.10;1.15;;;;;;;;;;5002826;28;20582;-69
2023/08/21 01:28:28;;;;;;;4.47;1.20;;;13.80;99.90;;;;;;5004365;28;20046;-69
2023/08/21 01:31:09;;;;;;;3.38;1.30;;;13.90;99.90;;;;;;4985667;28;20041;-69
2023/08/21 01:33:44;;;;;;;3.65;1.00;;;13.90;99.90;;;;;;5000578;28;20046;-69
2023/08/21 01:36:10;;;;;;;2.20;1.05;;;;;;;;;;5002701;28;20048;-69
2023/08/21 01:38:36;;;;;;;5.22;1.45;;;13.50;99.90;;;;;;4984941;28;20046;-69
2023/08/21 01:41:03;;;;;;;3.55;1.30;;;;;;;;;;5003979;28;20072;-69
2023/08/21 01:43:28;;;;;;;3.67;1.20;;;13.80;99.90;;;;;;4969300;28;20052;-69
2023/08/21 01:45:55;;;;;;;3.85;1.25;;;;;;;;;;5003355;28;20046;-69
2023/08/21 01:48:21;;;;;;;4.50;1.67;;;;;;;;;;4985094;28;20060;-69
2023/08/21 01:50:47;;;;;;;2.10;1.58;;;;;;;;;;4984568;28;20416;-69
2023/08/21 01:53:13;;;;;;;3.17;1.27;;;;;;;;;;5001527;28;20064;-68
2023/08/21 01:55:38;;;;;;;2.00;1.50;;;13.60;99.90;;;;;;4985451;28;20092;-69
2023/08/21 01:58:04;;;;;;;1.92;1.52;;;13.60;99.90;;;;;;5001381;28;20037;-69
2023/08/21 02:00:30;;;;;;;2.78;1.27;;;;;;;;;;5003126;28;20042;-69
2023/08/21 02:02:56;;;;;;;1.92;1.00;;;;;;;;;;4985454;28;20400;-69
2023/08/21 02:05:22;;;;;;;1.70;1.30;;;;;;;;;;5002955;28;20149;-69
2023/08/21 02:07:47;;;;;;;4.47;1.48;;;13.40;99.90;;;;;;4984827;28;20053;-69
2023/08/21 02:10:13;;;;;;;1.85;1.13;;;;;;;;;;5004162;28;20045;-69
2023/08/21 02:12:39;;;;;;;1.40;1.00;;;13.60;99.90;;;;;;5003876;28;20049;-69
2023/08/21 02:15:05;;;;;;;3.40;1.13;;;;;;;;;;4996069;28;20045;-69
2023/08/21 02:17:32;;;;;;;2.78;1.20;;;;;;;;;;5001977;28;20740;-69
2023/08/21 02:19:58;;;;;;;1.73;1.20;;;;;;;;;;5003765;28;20042;-69
2023/08/21 02:22:23;;;;;;;1.98;1.42;;;13.50;99.90;;;;;;4984330;28;20053;-69
2023/08/21 02:24:49;;;;;;;1.95;1.27;;;;;;;;;;5002637;28;20052;-69
2023/08/21 02:27:15;;;;;;;3.30;1.33;;;;;;;;;;5004151;28;20061;-69
2023/08/21 02:29:41;;;;;;;3.55;1.40;;;;;;;;;;5002403;28;20141;-69
2023/08/21 02:32:07;;;;;;;2.35;1.60;;;;;;;;;;5004268;28;20887;-69
2023/08/21 02:34:33;;;;;;;7.03;1.30;;;13.20;99.90;;;;;;5003235;28;20052;-69
2023/08/21 02:36:59;;;;;;;3.85;1.48;;;;;;;;;;5002852;28;20037;-69
2023/08/21 02:39:24;;;;;;;1.73;1.20;;;13.10;99.90;;;;;;5002852;28;20040;-69
2023/08/21 02:41:50;;;;;;;2.20;1.50;;;13.20;99.90;;;;;;5003448;28;20483;-69
2023/08/21 02:44:16;;;;;;;3.33;1.20;;;;;;;;;;5003334;28;20046;-69
2023/08/21 02:46:42;;;;;;;1.92;1.25;;;;;;;;;;5006217;28;20046;-69
2023/08/21 02:49:08;;;;;;;3.83;1.17;;;;;;;;;;5006151;28;20515;-69
2023/08/21 02:51:33;;;;;;;2.90;1.70;;;13.30;99.90;;;;;;5003838;28;20092;-69
2023/08/21 02:53:59;;;;;;;6.40;1.50;;;;;;;;;;4981762;28;20048;-69
2023/08/21 02:56:25;;;;;;;5.90;1.83;;;13.00;99.90;;;;;;5005589;28;20057;-69
2023/08/21 02:58:50;;;;;;;1.92;1.60;;;13.10;99.90;;;;;;5005603;28;20042;-69
2023/08/21 03:01:17;;;;;;;1.48;0.88;;;;;;;;;;5005215;28;20038;-69
2023/08/21 03:03:43;;;;;;;0.95;0.80;;;;;;;;;;4987448;28;20049;-69
2023/08/21 03:06:08;;;;;;;1.17;1.08;;;12.80;99.90;;;;;;4988245;28;20046;-69
2023/08/21 03:08:34;;;;;;;3.10;0.95;;;;;;;;;;5006172;28;20046;-69
2023/08/21 03:11:00;;;;;;;1.55;1.30;;;12.70;99.90;;;;;;4988542;28;20060;-69
2023/08/21 03:13:25;;;;;;;2.13;1.15;;;13.00;99.90;;;;;;5007734;28;20116;-69
2023/08/21 03:15:51;;;;;;;1.45;1.25;;;;;;;;;;5006477;28;20551;-69
2023/08/21 03:18:17;;;;;;;3.70;1.60;;;;;;;;;;5005971;28;20041;-69
2023/08/21 03:20:46;;;;;;;3.20;1.27;;;12.90;99.90;;;;;;4988360;28;20501;-69
2023/08/21 03:23:12;;;;;;;2.55;1.00;;;13.20;99.90;;;;;;4972512;28;20699;-69
2023/08/21 03:25:38;;;;;;;2.15;1.40;;;;;;;;;;5003844;28;20045;-69
2023/08/21 03:28:04;;;;;;;1.23;0.95;;;;;;;;;;5003374;28;20033;-69
2023/08/21 03:30:30;;;;;;;3.15;1.10;;;;;;;;;;4986910;28;20519;-69
2023/08/21 03:32:56;;;;;;;1.15;0.95;;;;;;;;;;5005966;28;20042;-69
2023/08/21 03:35:22;;;;;;;1.00;0.80;;;;;;;;;;5005919;28;20050;-69
2023/08/21 03:37:48;;;;;;;2.03;1.17;;;;;;;;;;4988344;28;20414;-69
2023/08/21 03:40:14;;;;;;;1.35;1.15;;;12.70;99.90;;;;;;4988355;28;20041;-69
2023/08/21 03:42:40;;;;;;;3.13;1.00;;;;;;;;;;5005624;28;20398;-69
2023/08/21 03:45:06;;;;;;;2.08;0.82;;;12.80;99.90;;;;;;4987130;28;20045;-69
2023/08/21 03:47:32;;;;;;;2.47;1.40;;;12.70;99.90;;;;;;5004749;28;20084;-69
2023/08/21 03:49:58;;;;;;;2.38;1.55;;;;;;;;;;5006433;28;20117;-69
2023/08/21 03:52:24;;;;;;;4.85;1.50;;;;;;;;;;5005057;28;20038;-69
2023/08/21 03:54:49;;;;;;;2.90;1.50;;;;;;;;;;5001015;28;20129;-69
2023/08/21 03:57:15;;;;;;;3.95;1.48;;;;;;;;;;4986976;28;20129;-69
2023/08/21 03:59:41;;;;;;;2.63;1.05;;;12.70;99.90;;;;;;5004616;28;20092;-69
2023/08/21 04:02:07;;;;;;;3.35;1.52;;;;;;;;;;5003050;28;20415;-69
2023/08/21 04:04:33;;;;;;;4.90;1.33;;;;;;;;;;5004721;28;20515;-69
2023/08/21 04:06:59;;;;;;;4.90;1.35;;;;;;;;;;5004846;28;20101;-69
2023/08/21 04:09:25;;;;;;;2.05;1.17;;;;;;;;;;4986560;28;20060;-68
2023/08/21 04:11:51;;;;;;;1.58;1.13;;;;;;;;;;5004344;28;20049;-69
2023/08/21 04:14:16;;;;;;;2.55;1.45;;;12.60;99.90;;;;;;4986004;28;20050;-69
2023/08/21 04:16:42;;;;;;;4.03;1.45;;;;;;;;;;5004221;28;20041;-68
2023/08/21 04:19:08;;;;;;;6.40;1.80;;;;;;;;;;5006181;28;20034;-68
2023/08/21 04:21:34;;;;;;;2.10;1.10;;;;;;;;;;4986616;28;20049;-68
2023/08/21 04:24:00;;;;;;;3.78;1.35;;;;;;;;;;4986876;28;20129;-68
2023/08/21 04:26:26;;;;;;;2.70;1.10;;;;;;;;;;5003115;28;20049;-68
2023/08/21 04:28:52;;;;;;;1.88;1.20;;;;;;;;;;5004418;28;20038;-69
2023/08/21 04:31:18;;;;;;;1.20;0.93;;;;;;;;;;5003334;28;20053;-68
2023/08/21 04:33:44;;;;;;;4.75;1.35;;;;;;;;;;5002617;28;20369;-68
2023/08/21 04:36:17;;;;;;;2.72;1.35;;;12.60;99.90;;;;;;4987141;28;20045;-68
2023/08/21 04:38:43;;;;;;;4.70;2.00;;;12.60;99.90;;;;;;4986102;28;20037;-69
2023/08/21 04:41:09;;;;;;;3.50;1.70;;;12.60;99.90;;;;;;4984923;28;20397;-68
2023/08/21 04:43:35;;;;;;;3.20;1.60;;;;;;;;;;5001479;28;20053;-69
2023/08/21 04:46:01;;;;;;;2.85;1.73;;;;;;;;;;4981390;28;20635;-69
2023/08/21 04:48:27;;;;;;;1.95;1.33;;;;;;;;;;4985714;28;20060;-69
2023/08/21 04:50:53;;;;;;;2.80;1.40;;;;;;;;;;4986800;28;20481;-69
2023/08/21 04:53:19;;;;;;;2.47;1.33;;;;;;;;;;5003115;28;20060;-69
2023/08/21 04:55:45;;;;;;;1.95;1.67;;;;;;;;;;5002901;28;20033;-69
2023/08/21 04:58:11;;;;;;;2.20;1.58;;;;;;;;;;5002854;28;20042;-69
2023/08/21 05:00:37;;;;;;;4.20;2.45;;;12.70;99.90;;;;;;4986001;28;20445;-69
2023/08/21 05:03:03;;;;;;;25.63;13.43;;;;;;;;;;5004354;28;20479;-68
2023/08/21 05:05:29;;;;;;;10.38;6.28;;;;;;;;;;5003874;28;20042;-68
2023/08/21 05:07:55;;;;;;;6.88;3.50;;;;;;;;;;5002806;28;20042;-69
2023/08/21 05:10:22;;;;;;;4.72;2.70;;;;;;;;;;5003755;28;20496;-69
2023/08/21 05:12:48;;;;;;;3.50;1.75;;;;;;;;;;5002353;28;20057;-69
2023/08/21 05:15:14;;;;;;;3.25;1.67;;;;;;;;;;5004105;28;20050;-69
2023/08/21 05:17:40;;;;;;;4.32;1.60;;;;;;;;;;5003345;28;20575;-69
2023/08/21 05:20:06;;;;;;;3.85;1.50;;;;;;;;;;5004021;28;20038;-69
2023/08/21 05:22:32;;;;;;;2.25;1.55;;;13.00;99.90;;;;;;5003576;28;20070;-69
2023/08/21 05:24:58;;;;;;;4.60;2.30;;;;;;;;;;5004614;28;20578;-69
2023/08/21 05:27:24;;;;;;;3.83;1.40;;;;;;;;;;4986387;28;20128;-69
2023/08/21 05:29:51;;;;;;;1.77;1.30;;;12.90;99.90;;;;;;5002441;28;20527;-69
2023/08/21 05:32:16;;;;;;;2.17;1.15;;;13.00;99.90;;;;;;5001323;28;20057;-69
2023/08/21 05:34:43;;;;;;;2.22;1.27;;;;;;;;;;4987727;28;20049;-70
2023/08/21 05:37:08;;;;;;;5.57;1.70;;;13.20;99.90;;;;;;4987520;28;20045;-69
2023/08/21 05:39:34;;;;;;;3.63;1.50;;;;;;;;;;5001656;28;20042;-69
2023/08/21 05:42:00;;;;;;;3.00;1.27;;;;;;;;;;5003118;28;20046;-69
2023/08/21 05:44:26;;;;;;;2.65;1.33;;;;;;;;;;4986386;28;20057;-69
2023/08/21 05:46:52;;;;;;;2.80;1.20;;;;;;;;;;5004214;28;20046;-69
2023/08/21 05:49:18;;;;;;;4.03;1.77;;;;;;;;;;4983697;28;20038;-69
2023/08/21 05:51:44;;;;;;;2.05;1.30;;;;;;;;;;4987242;28;20046;-69
2023/08/21 05:54:10;;;;;;;7.50;1.80;;;13.60;99.90;;;;;;5005124;28;20056;-69
2023/08/21 05:56:36;;;;;;;3.67;1.42;;;;;;;;;;4986751;28;20068;-69
2023/08/21 05:59:02;;;;;;;2.50;1.45;;;;;;;;;;5002804;28;20157;-69
2023/08/21 06:01:28;;;;;;;2.15;1.30;;;;;;;;;;4971305;28;20048;-69
2023/08/21 06:03:54;;;;;;;2.00;1.45;;;;;;;;;;4970941;28;20760;-69
2023/08/21 06:06:20;;;;;;;5.85;1.85;;;;;;;;;;4988360;28;20049;-69
2023/08/21 06:08:45;;;;;;;5.47;1.52;;;14.10;99.90;;;;;;5003489;28;20563;-69
2023/08/21 06:11:11;;;;;;;4.35;1.70;;;;;;;;;;4987297;28;20093;-69
2023/08/21 06:13:37;;;;;;;2.88;1.80;;;;;;;;;;4986453;28;20054;-70
2023/08/21 06:16:03;;;;;;;3.97;2.22;;;;;;;;;;4987211;28;20046;-69
2023/08/21 06:18:29;;;;;;;7.78;2.05;;;;;;;;;;5002961;28;20095;-69
2023/08/21 06:20:55;;;;;;;5.18;1.95;;;17.70;99.90;;;;;;5007242;28;20412;-69
2023/08/21 06:23:21;;;;;;;6.72;2.42;;;19.00;99.90;;;;;;5008838;28;20046;-69
2023/08/21 06:25:50;;;;;;;6.57;1.60;;;19.80;99.90;;;;;;5007272;28;20034;-69
2023/08/21 06:28:16;;;;;;;3.20;1.30;;;19.90;99.90;;;;;;5006446;28;20092;-69
2023/08/21 06:30:41;;;;;;;6.43;1.75;;;21.00;99.90;;;;;;4973646;28;20042;-69
2023/08/21 06:33:07;;;;;;;4.18;1.50;;;21.40;99.90;;;;;;5008524;28;21504;-69
2023/08/21 06:35:36;;;;;;;6.55;1.13;;;22.50;99.90;;;;;;4990729;28;20054;-69
2023/08/21 06:38:02;;;;;;;6.53;1.42;;;23.30;99.90;;;;;;5005431;28;20042;-69
2023/08/21 06:40:27;;;;;;;4.57;1.40;;;23.50;99.90;;;;;;5003538;28;20034;-71
2023/08/21 06:42:53;;;;;;;6.57;1.60;;;24.30;99.90;;;;;;4988973;28;20042;-71
2023/08/21 06:45:18;;;;;;;9.30;1.42;;;24.90;99.90;;;;;;4990408;28;20407;-71
2023/08/21 06:47:44;;;;;;;6.25;1.50;;;25.10;99.90;;;;;;5007398;28;20046;-71
2023/08/21 06:50:10;;;;;;;3.58;1.08;;;25.60;99.90;;;;;;5006462;28;20046;-71
2023/08/21 06:52:35;;;;;;;8.27;1.63;;;25.90;99.90;;;;;;5007924;28;20169;-71
2023/08/21 06:55:02;;;;;;;9.10;1.58;;;26.20;99.90;;;;;;4986828;28;20046;-71
2023/08/21 06:57:27;;;;;;;4.97;1.00;;;26.50;99.90;;;;;;5005493;28;20048;-72
2023/08/21 06:59:53;;;;;;;4.38;0.70;;;27.50;99.90;;;;;;4988969;28;20045;-70
2023/08/21 07:02:18;;;;;;;2.78;0.60;;;26.20;99.90;;;;;;4989770;28;20042;-71
2023/08/21 07:04:44;;;;;;;5.18;1.00;;;28.40;99.90;;;;;;4985168;28;20050;-71
2023/08/21 07:07:09;;;;;;;3.72;0.93;;;27.00;99.90;;;;;;4987577;28;20065;-71
2023/08/21 07:09:35;;;;;;;3.47;0.50;;;27.50;99.90;;;;;;5002655;28;20443;-70
2023/08/21 07:12:01;;;;;;;6.65;1.33;;;27.50;99.90;;;;;;5005500;28;20479;-71
2023/08/21 07:14:27;;;;;;;4.20;0.70;;;26.80;99.90;;;;;;4986178;28;20056;-71
2023/08/21 07:16:52;;;;;;;2.83;0.65;;;26.20;99.90;;;;;;4988483;28;20046;-70
2023/08/21 07:19:18;;;;;;;4.80;0.57;;;25.40;99.90;;;;;;5007151;28;20070;-71
2023/08/21 07:21:43;;;;;;;4.65;0.90;;;24.80;99.90;;;;;;4986888;28;20046;-70
2023/08/21 07:24:09;;;;;;;3.42;0.73;;;24.20;99.90;;;;;;4984954;28;20037;-71
2023/08/21 07:26:34;;;;;;;3.35;0.70;;;24.60;99.90;;;;;;4987890;28;20058;-71
2023/08/21 07:29:00;;;;;;;5.65;0.82;;;22.70;99.90;;;;;;4987517;28;20088;-70
2023/08/21 07:31:26;;;;;;;3.92;0.60;;;22.30;99.90;;;;;;5003455;28;20038;-71
2023/08/21 07:33:51;;;;;;;4.95;0.68;;;22.10;99.90;;;;;;5003741;28;20128;-71
2023/08/21 07:36:17;;;;;;;2.47;0.57;;;21.60;99.90;;;;;;4988333;28;20037;-70
2023/08/21 07:38:46;;;;;;;3.92;1.10;;;21.40;99.90;;;;;;4985126;28;20526;-71
2023/08/21 07:41:13;;;;;;;4.60;0.95;;;21.50;99.90;;;;;;4986061;28;20045;-71
2023/08/21 07:43:40;;;;;;;3.20;0.85;;;22.60;99.90;;;;;;5005732;28;20038;-71
2023/08/21 07:46:09;;;;;;;3.58;0.75;;;21.20;99.90;;;;;;4971303;28;20049;-71
2023/08/21 07:48:35;;;;;;;7.25;0.90;;;21.20;99.90;;;;;;4984638;28;20054;-71
2023/08/21 07:51:01;;;;;;;6.63;1.35;;;21.00;99.90;;;;;;5005172;28;20064;-71
2023/08/21 07:53:27;;;;;;;1.77;0.57;;;21.30;99.90;;;;;;5003153;28;20045;-70
2023/08/21 07:55:52;;;;;;;3.05;0.65;;;21.20;99.90;;;;;;5004166;28;20131;-71
2023/08/21 07:58:18;;;;;;;4.07;0.70;;;21.00;99.90;;;;;;5004922;28;20846;-70
2023/08/21 08:00:44;;;;;;;2.90;0.60;;;20.80;99.90;;;;;;5004275;28;20038;-70
2023/08/21 08:03:11;;;;;;;4.15;0.70;;;20.90;99.90;;;;;;5003485;28;20037;-70
2023/08/21 08:05:37;;;;;;;3.67;0.70;;;21.10;99.90;;;;;;5004393;28;20593;-70
2023/08/21 08:08:03;;;;;;;3.17;0.63;;;20.70;99.90;;;;;;5000971;28;20038;-71
2023/08/21 08:10:29;;;;;;;1.95;0.60;;;21.10;99.90;;;;;;5002680;28;20182;-70
2023/08/21 08:12:54;;;;;;;3.78;0.70;;;20.90;99.90;;;;;;4987928;28;20443;-70
2023/08/21 08:15:21;;;;;;;2.17;0.77;;;21.10;99.90;;;;;;5006454;28;20041;-70
2023/08/21 08:17:46;;;;;;;4.78;0.50;;;21.20;99.90;;;;;;5005002;28;20038;-70
2023/08/21 08:20:13;;;;;;;1.20;0.43;;;21.00;99.90;;;;;;5005579;28;20037;-70
2023/08/21 08:22:40;;;;;;;20.77;13.45;;;21.90;99.90;;;;;;5004771;28;20129;-71
2023/08/21 08:25:06;;;;;;;2.38;0.77;;;21.20;99.90;;;;;;5005750;28;20038;-70
2023/08/21 08:27:32;;;;;;;2.17;0.73;;;21.20;99.90;;;;;;5005795;28;20049;-71
2023/08/21 08:29:58;;;;;;;2.88;1.10;;;21.50;99.90;;;;;;5003774;28;20042;-71
2023/08/21 08:32:23;;;;;;;4.80;1.02;;;21.40;99.90;;;;;;5004883;28;20042;-69
2023/08/21 08:34:49;;;;;;;2.13;0.90;;;21.60;99.90;;;;;;5005930;28;20437;-70
2023/08/21 08:37:14;;;;;;;3.35;0.60;;;21.20;99.90;;;;;;4970984;28;20084;-70
2023/08/21 08:39:40;;;;;;;4.90;0.80;;;21.40;99.90;;;;;;5004201;28;20147;-70
2023/08/21 08:42:07;;;;;;;4.07;1.15;;;21.50;99.90;;;;;;4985416;28;20101;-69
2023/08/21 08:44:35;;;;;;;3.15;1.00;;;21.80;99.90;;;;;;4985717;28;20081;-69
2023/08/21 08:47:02;;;;;;;4.78;1.00;;;21.50;99.90;;;;;;5004487;28;20045;-68
2023/08/21 08:49:28;;;;;;;3.17;0.80;;;21.90;99.90;;;;;;5002146;28;20034;-68
2023/08/21 08:51:54;;;;;;;3.50;1.00;;;21.90;99.90;;;;;;4996713;28;20132;-69
2023/08/21 08:54:25;;;;;;;5.60;1.63;;;21.80;99.90;;;;;;5002246;28;20488;-69
2023/08/21 08:56:50;;;;;;;4.53;0.90;;;21.90;99.90;;;;;;4987529;28;20404;-68
2023/08/21 08:59:16;;;;;;;4.85;1.15;;;21.70;99.90;;;;;;4987664;28;20034;-68
2023/08/21 09:01:42;;;;;;;3.88;0.80;;;22.00;99.90;;;;;;4980867;28;20046;-68
2023/08/21 09:04:08;;;;;;;5.97;1.30;;;21.80;99.90;;;;;;5002142;28;20506;-68
2023/08/21 09:06:34;;;;;;;5.20;2.33;;;22.00;99.90;;;;;;5000646;28;20053;-68
2023/08/21 09:08:59;;;;;;;5.85;1.00;;;22.10;99.90;;;;;;4985356;28;20057;-68
2023/08/21 09:11:25;;;;;;;5.90;1.05;;;22.20;99.90;;;;;;5005003;28;20382;-69
2023/08/21 09:13:52;;;;;;;3.83;1.23;;;22.20;99.90;;;;;;4981476;28;20699;-68
2023/08/21 09:16:19;;;;;;;3.90;0.88;;;22.00;99.90;;;;;;5002880;28;20038;-68
2023/08/21 09:18:53;;;;;;;3.10;0.88;;;22.30;99.90;;;;;;4985067;28;20515;-68
2023/08/21 09:21:20;;;;;;;6.57;1.45;;;22.50;99.90;;;;;;4984210;28;20046;-68
2023/08/21 09:23:45;;;;;;;4.40;1.20;;;22.60;99.90;;;;;;4996104;28;20042;-68
2023/08/21 09:26:19;;;;;;;4.97;1.38;;;22.50;99.90;;;;;;4985683;28;20046;-68
2023/08/21 09:28:45;;;;;;;3.40;0.77;;;22.90;99.90;;;;;;4985792;28;20239;-68
2023/08/21 09:31:10;;;;;;;5.13;1.35;;;22.60;99.90;;;;;;4985778;28;20590;-69
2023/08/21 09:33:36;;;;;;;5.30;1.33;;;23.00;99.90;;;;;;5003902;28;20057;-68
2023/08/21 09:36:04;;;;;;;6.88;1.83;;;22.80;99.90;;;;;;4982339;28;20038;-68
2023/08/21 09:38:30;;;;;;;5.15;1.02;;;23.00;99.90;;;;;;5004730;28;20041;-69
2023/08/21 09:40:56;;;;;;;6.35;1.15;;;23.20;99.90;;;;;;4967567;28;20048;-69
2023/08/21 09:43:23;;;;;;;3.47;0.90;;;23.00;99.90;;;;;;4997007;28;20128;-68
2023/08/21 09:45:52;;;;;;;6.47;1.27;;;23.30;99.90;;;;;;4980267;28;20455;-69
2023/08/21 09:48:19;;;;;;;7.53;1.38;;;23.00;99.90;;;;;;4985190;28;20052;-69
2023/08/21 09:50:46;;;;;;;7.18;1.15;;;23.30;99.90;;;;;;5000715;28;20485;-69
2023/08/21 09:53:12;;;;;;;5.28;0.90;;;23.20;99.90;;;;;;4979658;28;20047;-69
2023/08/21 09:55:39;;;;;;;4.75;0.95;;;23.30;99.90;;;;;;4985829;28;20163;-69
2023/08/21 09:58:07;;;;;;;4.13;0.77;;;23.60;99.90;;;;;;4988100;28;20053;-69
2023/08/21 10:00:35;;;;;;;5.55;1.02;;;23.40;99.90;;;;;;4991038;28;20053;-68
2023/08/21 10:03:03;;;;;;;3.10;0.80;;;23.70;99.90;;;;;;5003655;28;20041;-69
2023/08/21 10:05:31;;;;;;;7.32;1.25;;;23.50;99.90;;;;;;5003389;28;20046;-69
2023/08/21 10:08:00;;;;;;;6.40;1.27;;;23.80;99.90;;;;;;4986366;28;20049;-69
2023/08/21 10:10:26;;;;;;;4.53;0.95;;;23.80;99.90;;;;;;5000935;28;20045;-69
2023/08/21 10:12:52;;;;;;;5.47;1.20;;;23.70;99.90;;;;;;5001086;28;20066;-69
2023/08/21 10:15:18;;;;;;;10.15;1.00;;;25.40;99.90;;;;;;4984263;28;20057;-68
2023/08/21 10:17:44;;;;;;;6.90;0.93;;;23.70;99.90;;;;;;5000582;28;20044;-68
2023/08/21 10:20:10;;;;;;;5.25;0.80;;;24.00;99.90;;;;;;4990293;28;20121;-69
2023/08/21 10:22:43;;;;;;;4.32;0.93;;;24.00;99.90;;;;;;4988341;28;20046;-69
2023/08/21 10:25:17;;;;;;;6.85;0.85;;;23.90;99.90;;;;;;5007926;28;20064;-69
2023/08/21 10:27:45;;;;;;;3.47;0.90;;;23.80;99.90;;;;;;4982106;28;20050;-70
2023/08/21 10:30:19;;;;;;;4.65;1.10;;;23.90;99.90;;;;;;4984351;28;20133;-69
2023/08/21 10:32:49;;;;;;;5.95;0.93;;;23.90;99.90;;;;;;4990905;28;20822;-69
2023/08/21 10:35:17;;;;;;;4.65;0.80;;;23.90;99.90;;;;;;5003400;28;20088;-69
2023/08/21 10:38:10;;;;;;;4.47;1.10;;;23.70;99.90;;;;;;4989551;28;20046;-69
2023/08/21 10:40:36;;;;;;;4.50;0.90;;;23.90;99.90;;;;;;4961975;28;20126;-69
2023/08/21 10:43:02;;;;;;;3.92;0.57;;;23.70;99.90;;;;;;4967812;28;20654;-68
2023/08/21 10:45:29;;;;;;;4.38;0.82;;;23.70;99.90;;;;;;4988490;28;20061;-69
2023/08/21 10:48:01;;;;;;;5.72;1.02;;;24.00;99.90;;;;;;5004495;28;20044;-69
2023/08/21 10:50:26;;;;;;;4.22;0.60;;;23.90;99.90;;;;;;5001836;28;20041;-69
2023/08/21 10:52:53;;;;;;;5.65;0.98;;;24.00;99.90;;;;;;4999112;28;20391;-69
2023/08/21 10:55:19;;;;;;;8.13;1.85;;;23.70;99.90;;;;;;4996960;28;20540;-69
2023/08/21 10:57:47;;;;;;;7.22;0.85;;;23.90;99.90;;;;;;5000928;28;20117;-69
2023/08/21 11:00:16;;;;;;;6.82;0.80;;;23.50;99.90;;;;;;4985801;28;20051;-69
2023/08/21 11:02:44;;;;;;;4.88;1.10;;;23.70;99.90;;;;;;5005261;28;20054;-68
2023/08/21 11:05:10;;;;;;;5.30;1.13;;;23.40;99.90;;;;;;4985953;28;20153;-69
2023/08/21 11:07:46;;;;;;;5.95;1.23;;;23.60;99.90;;;;;;5005704;28;20077;-69
2023/08/21 11:10:14;;;;;;;7.50;1.10;;;23.50;99.90;;;;;;4992040;28;20475;-69
2023/08/21 11:12:56;;;;;;;4.35;0.93;;;23.60;99.90;;;;;;4998941;28;20058;-69
2023/08/21 11:15:24;;;;;;;5.65;1.05;;;23.80;99.90;;;;;;4975550;28;20563;-69
2023/08/21 11:18:01;;;;;;;8.02;1.38;;;23.90;99.90;;;;;;4981941;28;20496;-69
2023/08/21 11:20:31;;;;;;;7.63;1.13;;;24.10;99.90;;;;;;5001969;28;20457;-69
2023/08/21 11:22:58;;;;;;;4.20;1.08;;;24.00;99.90;;;;;;4985274;28;20038;-69
2023/08/21 11:25:24;;;;;;;5.32;1.55;;;24.20;99.90;;;;;;4981373;28;20811;-69
2023/08/21 11:27:49;;;;;;;5.45;1.00;;;24.10;99.90;;;;;;4989751;28;20050;-69
2023/08/21 11:30:16;;;;;;;7.38;1.42;;;24.00;99.90;;;;;;4986192;28;20045;-69
2023/08/21 11:32:41;;;;;;;6.70;1.63;;;24.10;99.90;;;;;;4998974;28;20061;-69
2023/08/21 11:35:07;;;;;;;5.68;1.45;;;24.30;99.90;;;;;;4985625;28;20046;-69
2023/08/21 11:37:33;;;;;;;4.80;0.90;;;24.20;99.90;;;;;;5000116;28;20055;-69
2023/08/21 11:39:59;;;;;;;5.25;0.70;;;24.00;99.90;;;;;;4983904;28;20412;-69
2023/08/21 11:42:32;;;;;;;3.63;0.50;;;24.10;99.90;;;;;;4985805;28;20519;-69
2023/08/21 11:45:00;;;;;;;3.17;0.50;;;24.20;99.90;;;;;;4999053;28;20046;-69
2023/08/21 11:47:32;;;;;;;6.10;0.90;;;24.20;99.90;;;;;;4987502;28;20108;-69
2023/08/21 11:50:03;;;;;;;6.97;0.80;;;24.10;99.90;;;;;;5005572;28;20042;-69
2023/08/21 11:52:31;;;;;;;5.03;0.65;;;24.40;99.90;;;;;;5001021;28;20133;-69
2023/08/21 11:54:57;;;;;;;6.90;0.68;;;24.80;99.90;;;;;;4985942;28;20038;-68
2023/08/21 11:57:22;;;;;;;6.03;0.77;;;24.90;99.90;;;;;;4998391;28;20044;-69
2023/08/21 11:59:53;;;;;;;4.07;0.60;;;24.40;99.90;;;;;;4985361;28;20467;-69
2023/08/21 12:02:23;;;;;;;6.63;1.00;;;24.10;99.90;;;;;;5006450;28;20575;-69
2023/08/21 12:05:02;;;;;;;3.05;0.60;;;24.50;99.90;;;;;;4976525;28;20412;-69
2023/08/21 12:07:27;;;;;;;5.97;0.75;;;24.20;99.90;;;;;;4981018;28;20077;-69
2023/08/21 12:09:53;;;;;;;5.40;0.60;;;24.20;99.90;;;;;;4988274;28;20049;-68
2023/08/21 12:12:18;;;;;;;6.55;0.52;;;24.30;99.90;;;;;;5002283;28;20528;-69
2023/08/21 12:14:46;;;;;;;3.42;0.70;;;24.20;99.90;;;;;;4981324;28;20125;-69
2023/08/21 12:17:11;;;;;;;3.33;0.45;;;24.40;99.90;;;;;;4982483;28;20057;-69
2023/08/21 12:19:37;;;;;;;2.20;0.40;;;24.20;99.90;;;;;;5003578;28;20038;-69
2023/08/21 12:22:03;;;;;;;5.50;0.85;;;24.50;99.90;;;;;;5000439;28;20088;-69
2023/08/21 12:24:29;;;;;;;4.63;0.40;;;24.70;99.90;;;;;;5005898;28;20073;-69
2023/08/21 12:26:55;;;;;;;7.82;0.82;;;24.50;99.90;;;;;;4999656;28;20622;-69
2023/08/21 12:29:21;;;;;;;2.97;0.75;;;24.50;99.90;;;;;;4982929;28;20045;-69
2023/08/21 12:31:47;;;;;;;3.50;0.80;;;24.50;99.90;;;;;;5002721;28;20076;-69
2023/08/21 12:34:12;;;;;;;5.30;0.45;;;24.60;99.90;;;;;;5006197;28;20046;-69
2023/08/21 12:36:38;;;;;;;2.47;0.40;;;24.50;99.90;;;;;;4982458;28;20405;-69
2023/08/21 12:39:05;;;;;;;4.25;0.50;;;24.70;99.90;;;;;;4997449;28;20072;-69
2023/08/21 12:41:30;;;;;;;3.53;0.50;;;24.80;99.90;;;;;;4995640;28;20038;-69
2023/08/21 12:43:56;;;;;;;6.47;0.65;;;24.80;99.90;;;;;;4981912;28;20072;-69
2023/08/21 12:46:22;;;;;;;5.63;0.57;;;24.70;99.90;;;;;;4988714;28;20053;-69
2023/08/21 12:48:47;;;;;;;6.93;0.45;;;25.60;99.90;;;;;;5003370;28;20034;-69
2023/08/21 12:51:13;;;;;;;5.68;0.60;;;25.10;99.90;;;;;;4991542;28;20115;-69
2023/08/21 12:53:39;;;;;;;3.58;1.30;;;24.70;99.90;;;;;;4981348;28;20052;-69
2023/08/21 12:56:04;;;;;;;8.38;0.40;;;24.80;99.90;;;;;;4984816;28;20076;-69
2023/08/21 12:58:30;;;;;;;2.85;0.50;;;24.90;99.90;;;;;;4988430;28;20788;-69
2023/08/21 13:00:55;;;;;;;3.85;0.60;;;24.90;99.90;;;;;;4978022;28;20042;-69
2023/08/21 13:03:21;;;;;;;2.67;0.45;;;24.90;99.90;;;;;;4982716;28;20626;-69
2023/08/21 13:05:47;;;;;;;1.33;0.25;;;25.00;99.90;;;;;;4985926;28;20103;-69
2023/08/21 13:08:13;;;;;;;5.35;0.40;;;24.70;99.90;;;;;;5005670;28;20137;-69
2023/08/21 13:10:39;;;;;;;3.30;0.50;;;24.50;99.90;;;;;;4980798;28;20065;-69
2023/08/21 13:13:05;;;;;;;3.17;0.35;;;24.60;99.90;;;;;;5000063;28;20423;-69
2023/08/21 13:15:30;;;;;;;2.78;0.60;;;24.70;99.90;;;;;;4980435;28;20046;-69